createdAt,value
2024-02-06T00:01:54.435Z,101475.25
2024-02-06T00:04:21.327Z,101477.25
2024-02-06T00:06:48.159Z,101469.22
2024-02-06T00:09:15.269Z,101471.28
2024-02-06T00:11:41.896Z,101480.41
2024-02-06T00:14:11.442Z,101475.91
2024-02-06T00:16:39.022Z,101465.34
2024-02-06T00:19:09.032Z,101469.00
2024-02-06T00:21:35.651Z,101461.09
2024-02-06T00:24:02.314Z,101461.22
2024-02-06T00:26:29.028Z,101458.69
2024-02-06T00:28:56.059Z,101457.69
2024-02-06T00:31:23.535Z,101452.59
2024-02-06T00:33:50.846Z,101446.41
2024-02-06T00:36:17.557Z,101445.66
2024-02-06T00:38:44.147Z,101437.78
2024-02-06T00:41:12.553Z,101444.22
2024-02-06T00:43:39.367Z,101453.09
2024-02-06T00:46:06.102Z,101431.00
2024-02-06T00:48:33.005Z,101431.13
2024-02-06T00:50:59.772Z,101422.38
2024-02-06T00:53:26.386Z,101414.47
2024-02-06T00:55:52.951Z,101410.97
2024-02-06T00:58:19.559Z,101416.41
2024-02-06T01:00:46.382Z,101411.91
2024-02-06T01:03:13.021Z,101410.22
2024-02-06T01:05:39.592Z,101418.25
2024-02-06T01:08:06.544Z,101403.19
2024-02-06T01:10:33.310Z,101402.34
2024-02-06T01:12:59.946Z,101398.81
2024-02-06T01:15:26.504Z,101395.28
2024-02-06T01:17:53.071Z,101391.75
2024-02-06T01:20:19.727Z,101387.38
2024-02-06T01:22:46.316Z,101390.06
2024-02-06T01:25:14.162Z,101391.91
2024-02-06T01:27:40.918Z,101378.53
2024-02-06T01:30:08.143Z,101384.84
2024-02-06T01:32:34.797Z,101374.16
2024-02-06T01:35:01.524Z,101381.34
2024-02-06T01:37:28.188Z,101389.38
2024-02-06T01:39:54.874Z,101378.66
2024-02-06T01:42:21.503Z,101379.63
2024-02-06T01:44:48.074Z,101373.44
2024-02-06T01:47:15.245Z,101371.59
2024-02-06T01:49:44.298Z,101371.59
2024-02-06T01:52:12.893Z,101362.72
2024-02-06T01:54:39.470Z,101365.41
2024-02-06T01:57:06.759Z,101362.63
2024-02-06T01:59:33.505Z,101361.75
2024-02-06T02:02:00.399Z,101360.91
2024-02-06T02:04:27.309Z,101357.28
2024-02-06T02:06:55.767Z,101358.13
2024-02-06T02:09:22.699Z,101356.41
2024-02-06T02:11:49.405Z,101354.59
2024-02-06T02:14:16.310Z,101346.56
2024-02-06T02:16:42.943Z,101346.56
2024-02-06T02:19:09.707Z,101334.16
2024-02-06T02:21:36.480Z,101329.66
2024-02-06T02:24:04.930Z,101328.81
2024-02-06T02:26:32.018Z,101329.66
2024-02-06T02:28:59.022Z,101325.28
2024-02-06T02:31:26.647Z,101320.78
2024-02-06T02:33:55.145Z,101317.16
2024-02-06T02:36:22.012Z,101318.13
2024-02-06T02:38:48.581Z,101292.34
2024-02-06T02:41:15.280Z,101317.16
2024-02-06T02:43:41.944Z,101316.28
2024-02-06T02:46:08.573Z,101318.13
2024-02-06T02:48:35.959Z,101307.41
2024-02-06T02:51:02.688Z,101306.56
2024-02-06T02:53:29.297Z,101309.25
2024-02-06T02:55:55.887Z,101299.41
2024-02-06T02:58:22.507Z,101299.41
2024-02-06T03:00:49.349Z,101294.88
2024-02-06T03:03:16.022Z,101295.88
2024-02-06T03:05:42.682Z,101292.22
2024-02-06T03:08:10.454Z,101292.22
2024-02-06T03:10:37.119Z,101286.16
2024-02-06T03:13:04.164Z,101278.16
2024-02-06T03:15:30.932Z,101279.00
2024-02-06T03:17:57.791Z,101272.66
2024-02-06T03:20:24.424Z,101268.28
2024-02-06T03:22:51.192Z,101270.97
2024-02-06T03:25:18.047Z,101262.94
2024-02-06T03:27:46.632Z,101268.28
2024-02-06T03:30:14.661Z,101262.94
2024-02-06T03:32:41.503Z,101262.94
2024-02-06T03:35:08.921Z,101265.47
2024-02-06T03:37:36.008Z,101264.63
2024-02-06T03:40:03.133Z,101261.97
2024-02-06T03:42:29.715Z,101251.25
2024-02-06T03:44:56.318Z,101269.97
2024-02-06T03:47:22.844Z,101256.50
2024-02-06T03:49:49.647Z,101253.94
2024-02-06T03:52:16.404Z,101260.13
2024-02-06T03:54:43.030Z,101254.91
2024-02-06T03:57:10.975Z,101259.28
2024-02-06T03:59:37.504Z,101259.28
2024-02-06T04:02:04.544Z,101251.16
2024-02-06T04:04:31.530Z,101253.94
2024-02-06T04:06:58.329Z,101254.78
2024-02-06T04:09:25.067Z,101257.59
2024-02-06T04:11:51.818Z,101253.94
2024-02-06T04:14:18.429Z,101251.25
2024-02-06T04:16:45.640Z,101246.75
2024-02-06T04:19:12.785Z,101241.56
2024-02-06T04:21:39.715Z,101235.22
2024-02-06T04:24:07.226Z,101229.03
2024-02-06T04:26:33.869Z,101226.34
2024-02-06T04:29:00.477Z,101234.38
2024-02-06T04:31:27.099Z,101225.50
2024-02-06T04:33:54.070Z,101231.69
2024-02-06T04:36:22.110Z,101225.50
2024-02-06T04:38:48.690Z,101215.81
2024-02-06T04:41:15.255Z,101214.81
2024-02-06T04:43:42.997Z,101226.34
2024-02-06T04:46:10.011Z,101213.97
2024-02-06T04:48:36.745Z,101203.28
2024-02-06T04:51:03.353Z,101211.28
2024-02-06T04:53:32.629Z,101194.41
2024-02-06T04:55:59.492Z,101198.78
2024-02-06T04:58:26.590Z,101194.25
2024-02-06T05:00:53.305Z,101202.44
2024-02-06T05:03:20.416Z,101187.22
2024-02-06T05:05:47.028Z,101183.72
2024-02-06T05:08:13.658Z,101181.88
2024-02-06T05:10:40.988Z,101164.84
2024-02-06T05:13:08.524Z,101186.25
2024-02-06T05:15:35.181Z,101187.09
2024-02-06T05:18:01.973Z,101172.03
2024-02-06T05:20:28.709Z,101172.88
2024-02-06T05:22:55.336Z,101167.53
2024-02-06T05:25:24.618Z,101179.06
2024-02-06T05:27:51.816Z,101183.56
2024-02-06T05:30:19.548Z,101172.88
2024-02-06T05:32:46.250Z,101181.75
2024-02-06T05:35:13.168Z,101173.72
2024-02-06T05:37:40.169Z,101162.19
2024-02-06T05:40:08.311Z,101164.84
2024-02-06T05:42:34.987Z,101161.34
2024-02-06T05:45:01.590Z,101155.97
2024-02-06T05:47:28.959Z,101155.97
2024-02-06T05:49:55.881Z,101160.50
2024-02-06T05:52:22.800Z,101150.63
2024-02-06T05:54:49.595Z,101151.47
2024-02-06T05:57:16.208Z,101141.78
2024-02-06T05:59:42.852Z,101150.63
2024-02-06T06:02:09.741Z,101141.63
2024-02-06T06:04:36.767Z,101148.94
2024-02-06T06:07:03.609Z,101138.25
2024-02-06T06:09:30.602Z,101140.78
2024-02-06T06:11:57.342Z,101137.25
2024-02-06T06:14:23.959Z,101144.31
2024-02-06T06:16:50.533Z,101133.75
2024-02-06T06:19:17.221Z,101135.44
2024-02-06T06:21:44.226Z,101130.09
2024-02-06T06:24:11.255Z,101126.56
2024-02-06T06:26:38.743Z,101116.88
2024-02-06T06:29:05.817Z,101107.84
2024-02-06T06:31:32.475Z,101112.34
2024-02-06T06:33:59.241Z,101115.88
2024-02-06T06:36:26.034Z,101106.16
2024-02-06T06:38:52.605Z,101103.50
2024-02-06T06:41:19.223Z,101099.97
2024-02-06T06:43:46.081Z,101094.63
2024-02-06T06:46:12.749Z,101108.84
2024-02-06T06:48:39.577Z,101100.81
2024-02-06T06:51:06.164Z,101099.97
2024-02-06T06:53:32.891Z,101107.16
2024-02-06T06:55:59.513Z,101099.97
2024-02-06T06:58:26.153Z,101097.41
2024-02-06T07:00:54.418Z,101088.56
2024-02-06T07:03:21.421Z,101108.13
2024-02-06T07:05:52.490Z,101096.56
2024-02-06T07:08:19.245Z,101100.09
2024-02-06T07:10:45.983Z,101100.94
2024-02-06T07:13:12.850Z,101101.94
2024-02-06T07:15:39.464Z,101101.09
2024-02-06T07:18:06.385Z,101105.44
2024-02-06T07:20:33.095Z,101103.75
2024-02-06T07:22:59.734Z,101101.09
2024-02-06T07:25:26.318Z,101101.94
2024-02-06T07:27:52.981Z,101098.41
2024-02-06T07:30:27.593Z,101095.75
2024-02-06T07:33:00.904Z,101093.06
2024-02-06T07:35:27.657Z,101080.69
2024-02-06T07:37:54.292Z,101070.69
2024-02-06T07:42:50.833Z,101079.69
2024-02-06T07:45:17.453Z,101085.03
2024-02-06T07:47:45.100Z,101069.84
2024-02-06T07:52:38.480Z,101073.34
2024-02-06T07:55:05.733Z,101063.66
2024-02-06T07:57:32.353Z,101074.34
2024-02-06T07:59:58.952Z,101075.19
2024-02-06T08:02:25.758Z,101071.69
2024-02-06T08:04:54.574Z,101065.34
2024-02-06T08:07:21.971Z,101063.66
2024-02-06T08:09:49.063Z,101067.16
2024-02-06T08:12:15.664Z,101081.38
2024-02-06T08:14:43.175Z,101064.50
2024-02-06T08:17:09.810Z,101055.63
2024-02-06T08:19:36.526Z,101049.28
2024-02-06T08:22:03.216Z,101054.63
2024-02-06T08:24:29.837Z,101041.28
2024-02-06T08:26:56.886Z,101037.75
2024-02-06T08:29:23.610Z,101028.75
2024-02-06T08:31:50.843Z,101026.06
2024-02-06T08:34:17.689Z,101027.91
2024-02-06T08:36:44.405Z,101020.72
2024-02-06T08:39:10.993Z,101026.94
2024-02-06T08:41:37.626Z,101010.03
2024-02-06T08:44:04.465Z,101014.28
2024-02-06T08:46:31.115Z,101009.06
2024-02-06T08:48:58.082Z,101004.56
2024-02-06T08:51:24.775Z,101000.06
2024-02-06T08:53:51.437Z,101000.91
2024-02-06T08:56:18.004Z,100999.91
2024-02-06T08:58:44.692Z,100985.69
2024-02-06T09:01:12.471Z,100989.09
2024-02-06T09:03:39.677Z,100984.59
2024-02-06T09:06:07.004Z,100983.59
2024-02-06T09:08:34.506Z,100981.75
2024-02-06T09:11:01.228Z,100979.09
2024-02-06T09:13:27.895Z,100958.53
2024-02-06T09:15:54.520Z,100961.94
2024-02-06T09:18:21.358Z,100960.94
2024-02-06T09:20:48.360Z,100961.66
2024-02-06T09:23:14.920Z,100958.00
2024-02-06T09:25:44.288Z,100949.81
2024-02-06T09:28:10.867Z,100956.84
2024-02-06T09:30:40.792Z,100956.59
2024-02-06T09:33:08.191Z,100933.34
2024-02-06T09:35:34.944Z,100935.06
2024-02-06T09:38:01.691Z,100928.56
2024-02-06T09:40:28.392Z,100933.81
2024-02-06T09:42:56.202Z,100929.28
2024-02-06T09:45:23.057Z,100915.78
2024-02-06T09:47:49.666Z,100898.72
2024-02-06T09:50:17.644Z,100903.97
2024-02-06T09:52:49.165Z,100903.81
2024-02-06T09:55:16.708Z,100890.31
2024-02-06T09:57:45.836Z,100892.81
2024-02-06T10:00:15.667Z,100911.41
2024-02-06T10:02:44.295Z,100898.75
2024-02-06T10:05:17.835Z,100896.75
2024-02-06T10:07:47.525Z,100912.69
2024-02-06T10:10:15.663Z,100902.38
2024-02-06T10:12:44.859Z,100916.47
2024-02-06T10:15:20.170Z,100915.50
2024-02-06T10:17:46.990Z,100902.78
2024-02-06T10:20:14.390Z,100909.84
2024-02-06T10:22:42.468Z,100918.56
2024-02-06T10:25:12.853Z,100916.75
2024-02-06T10:27:39.486Z,100914.06
2024-02-06T10:30:11.208Z,100906.75
2024-02-06T10:32:39.404Z,100922.66
2024-02-06T10:35:09.028Z,100925.19
2024-02-06T10:37:40.326Z,100910.00
2024-02-06T10:40:12.666Z,100927.72
2024-02-06T10:43:24.741Z,100920.38
2024-02-06T10:45:28.151Z,100922.09
2024-02-06T10:48:02.005Z,100914.94
2024-02-06T10:50:29.499Z,100900.56
2024-02-06T10:52:57.057Z,100922.66
2024-02-06T10:55:24.372Z,100909.16
2024-02-06T10:58:08.516Z,100911.84
2024-02-06T11:00:36.754Z,100899.84
2024-02-06T11:03:10.166Z,100906.88
2024-02-06T11:05:45.540Z,100912.06
2024-02-06T11:08:21.250Z,100925.47
2024-02-06T11:10:57.102Z,100922.66
2024-02-06T11:13:47.759Z,100919.16
2024-02-06T11:16:19.459Z,100926.19
2024-02-06T11:19:01.175Z,100929.84
2024-02-06T11:21:30.049Z,100912.94
2024-02-06T11:23:58.275Z,100920.97
2024-02-06T11:26:24.906Z,100912.94
2024-02-06T11:28:52.385Z,100905.88
2024-02-06T11:31:20.730Z,100910.28
2024-02-06T11:33:47.493Z,100898.69
2024-02-06T11:36:17.720Z,100903.22
2024-02-06T11:38:46.175Z,100874.75
2024-02-06T11:41:15.567Z,100892.50
2024-02-06T11:43:43.518Z,100875.59
2024-02-06T11:46:10.617Z,100906.88
2024-02-06T11:48:37.380Z,100885.47
2024-02-06T11:51:05.678Z,100868.56
2024-02-06T11:53:32.983Z,100881.94
2024-02-06T11:56:01.446Z,100871.25
2024-02-06T11:58:28.378Z,100857.84
2024-02-06T12:00:57.258Z,100854.19
2024-02-06T12:03:23.920Z,100856.88
2024-02-06T12:05:51.007Z,100851.50
2024-02-06T12:08:23.316Z,100846.03
2024-02-06T12:10:50.834Z,100853.06
2024-02-06T12:13:19.124Z,100847.72
2024-02-06T12:15:46.661Z,100836.16
2024-02-06T12:18:15.455Z,100833.31
2024-02-06T12:20:42.427Z,100826.97
2024-02-06T12:23:09.998Z,100848.38
2024-02-06T12:25:42.060Z,100829.66
2024-02-06T12:28:14.316Z,100833.16
2024-02-06T12:30:51.057Z,100832.31
2024-02-06T12:33:18.482Z,100836.72
2024-02-06T12:35:46.174Z,100815.31
2024-02-06T12:38:13.188Z,100835.84
2024-02-06T12:40:39.910Z,100833.31
2024-02-06T12:43:08.026Z,100838.53
2024-02-06T12:45:36.076Z,100823.47
2024-02-06T12:48:04.024Z,100851.91
2024-02-06T12:50:31.243Z,100838.69
2024-02-06T12:53:01.131Z,100840.34
2024-02-06T12:55:30.598Z,100825.28
2024-02-06T12:57:58.199Z,100833.31
2024-02-06T13:00:25.739Z,100829.81
2024-02-06T13:03:05.354Z,100829.25
2024-02-06T13:05:35.853Z,100833.47
2024-02-06T13:08:14.850Z,100829.25
2024-02-06T13:10:41.640Z,100813.03
2024-02-06T13:13:09.240Z,100795.28
2024-02-06T13:15:37.011Z,100808.56
2024-02-06T13:18:08.547Z,100802.47
2024-02-06T13:20:40.993Z,100795.44
2024-02-06T13:23:15.475Z,100791.94
2024-02-06T13:25:42.573Z,100793.78
2024-02-06T13:28:09.723Z,100810.69
2024-02-06T13:30:37.934Z,100796.44
2024-02-06T13:33:06.679Z,100791.09
2024-02-06T13:35:33.627Z,100804.47
2024-02-06T13:38:04.978Z,100789.38
2024-02-06T13:40:31.997Z,100775.16
2024-02-06T13:43:01.640Z,100769.97
2024-02-06T13:45:28.309Z,100798.56
2024-02-06T13:47:55.184Z,100778.13
2024-02-06T13:50:23.074Z,100788.00
2024-02-06T13:52:50.125Z,100771.94
2024-02-06T13:55:17.215Z,100785.47
2024-02-06T13:57:44.091Z,100790.84
2024-02-06T14:00:14.354Z,100761.50
2024-02-06T14:02:42.383Z,100780.25
2024-02-06T14:05:09.544Z,100770.50
2024-02-06T14:07:36.243Z,100767.84
2024-02-06T14:10:03.493Z,100769.66
2024-02-06T14:12:36.398Z,100768.84
2024-02-06T14:15:10.869Z,100766.16
2024-02-06T14:17:38.764Z,100762.63
2024-02-06T14:22:34.445Z,100759.13
2024-02-06T14:25:01.979Z,100758.13
2024-02-06T14:27:28.582Z,100750.09
2024-02-06T14:29:55.184Z,100752.78
2024-02-06T14:32:21.848Z,100753.63
2024-02-06T14:34:49.190Z,100767.84
2024-02-06T14:37:16.078Z,100750.09
2024-02-06T14:39:43.101Z,100735.88
2024-02-06T14:42:09.845Z,100743.91
2024-02-06T14:44:43.834Z,100750.09
2024-02-06T14:47:14.198Z,100750.25
2024-02-06T14:49:40.920Z,100748.41
2024-02-06T14:52:07.696Z,100744.91
2024-02-06T14:54:34.394Z,100749.41
2024-02-06T14:57:00.969Z,100750.25
2024-02-06T14:59:28.834Z,100736.88
2024-02-06T15:01:55.492Z,100723.63
2024-02-06T15:04:23.298Z,100738.84
2024-02-06T15:06:49.938Z,100737.84
2024-02-06T15:09:16.865Z,100723.63
2024-02-06T15:11:43.796Z,100724.63
2024-02-06T15:14:10.475Z,100725.47
2024-02-06T15:16:41.471Z,100732.66
2024-02-06T15:19:09.733Z,100725.47
2024-02-06T15:21:36.804Z,100719.28
2024-02-06T15:24:03.699Z,100713.91
2024-02-06T15:26:34.986Z,100727.31
2024-02-06T15:29:01.799Z,100713.09
2024-02-06T15:31:28.644Z,100718.44
2024-02-06T15:33:55.485Z,100715.88
2024-02-06T15:36:22.168Z,100712.38
2024-02-06T15:38:48.967Z,100710.53
2024-02-06T15:41:17.284Z,100714.91
2024-02-06T15:43:44.270Z,100704.34
2024-02-06T15:46:11.978Z,100708.84
2024-02-06T15:48:47.966Z,100707.19
2024-02-06T15:51:15.283Z,100711.53
2024-02-06T15:53:42.154Z,100699.16
2024-02-06T15:56:09.287Z,100704.50
2024-02-06T15:58:36.604Z,100692.97
2024-02-06T16:01:03.544Z,100694.81
2024-02-06T16:03:30.225Z,100716.22
2024-02-06T16:05:57.448Z,100700.16
2024-02-06T16:08:24.078Z,100694.81
2024-02-06T16:10:50.862Z,100688.59
2024-02-06T16:13:19.867Z,100678.88
2024-02-06T16:15:48.673Z,100691.41
2024-02-06T16:18:16.624Z,100686.06
2024-02-06T16:20:43.605Z,100689.72
2024-02-06T16:23:10.487Z,100691.41
2024-02-06T16:25:37.137Z,100690.72
2024-02-06T16:28:03.967Z,100684.38
2024-02-06T16:30:30.593Z,100685.38
2024-02-06T16:32:57.237Z,100697.06
2024-02-06T16:35:23.892Z,100708.63
2024-02-06T16:37:50.665Z,100716.66
2024-02-06T16:40:17.521Z,100694.38
2024-02-06T16:42:45.133Z,100695.25
2024-02-06T16:45:12.767Z,100695.38
2024-02-06T16:47:39.646Z,100693.53
2024-02-06T16:50:07.088Z,100689.19
2024-02-06T16:52:33.891Z,100681.16
2024-02-06T16:55:00.897Z,100683.84
2024-02-06T16:57:27.517Z,100679.47
2024-02-06T16:59:54.058Z,100674.13
2024-02-06T17:02:21.158Z,100669.63
2024-02-06T17:04:47.895Z,100650.88
2024-02-06T17:07:14.802Z,100662.59
2024-02-06T17:09:41.497Z,100651.88
2024-02-06T17:12:08.126Z,100651.88
2024-02-06T17:14:35.040Z,100654.56
2024-02-06T17:17:01.654Z,100652.84
2024-02-06T17:19:28.348Z,100646.53
2024-02-06T17:21:55.130Z,100665.25
2024-02-06T17:24:21.736Z,100648.38
2024-02-06T17:26:48.460Z,100637.66
2024-02-06T17:29:15.101Z,100643.84
2024-02-06T17:31:41.923Z,100643.03
2024-02-06T17:34:08.780Z,100650.88
2024-02-06T17:36:39.669Z,100642.16
2024-02-06T17:39:06.786Z,100635.84
2024-02-06T17:41:33.401Z,100639.47
2024-02-06T17:44:00.053Z,100635.00
2024-02-06T17:46:26.835Z,100637.66
2024-02-06T17:48:53.470Z,100639.47
2024-02-06T17:51:20.035Z,100618.06
2024-02-06T17:53:46.606Z,100632.31
2024-02-06T17:56:13.168Z,100625.13
2024-02-06T17:58:41.801Z,100618.06
2024-02-06T18:01:09.743Z,100606.41
2024-02-06T18:03:36.437Z,100589.50
2024-02-06T18:06:03.839Z,100605.56
2024-02-06T18:08:30.667Z,100603.03
2024-02-06T18:10:57.484Z,100594.00
2024-02-06T18:13:24.214Z,100602.03
2024-02-06T18:15:50.858Z,100598.50
2024-02-06T18:18:17.640Z,100585.13
2024-02-06T18:20:44.268Z,100595.00
2024-02-06T18:23:10.876Z,100577.28
2024-02-06T18:25:37.530Z,100578.09
2024-02-06T18:28:04.457Z,100570.09
2024-02-06T18:30:31.089Z,100578.94
2024-02-06T18:32:57.692Z,100570.91
2024-02-06T18:35:24.392Z,100563.06
2024-02-06T18:37:51.327Z,100558.72
2024-02-06T18:40:18.189Z,100558.72
2024-02-06T18:42:44.886Z,100557.72
2024-02-06T18:45:11.563Z,100546.16
2024-02-06T18:47:38.146Z,100557.84
2024-02-06T18:50:05.105Z,100545.34
2024-02-06T18:52:31.781Z,100544.47
2024-02-06T18:54:58.426Z,100544.47
2024-02-06T18:57:25.115Z,100532.91
2024-02-06T18:59:51.715Z,100534.63
2024-02-06T19:02:18.316Z,100544.63
2024-02-06T19:04:45.032Z,100523.06
2024-02-06T19:07:11.881Z,100529.41
2024-02-06T19:09:38.732Z,100536.59
2024-02-06T19:12:05.852Z,100546.47
2024-02-06T19:14:33.140Z,100540.28
2024-02-06T19:16:59.676Z,100535.75
2024-02-06T19:19:26.490Z,100513.53
2024-02-06T19:21:53.347Z,100503.81
2024-02-06T19:24:20.079Z,100521.69
2024-02-06T19:26:46.782Z,100523.50
2024-02-06T19:29:13.602Z,100520.84
2024-02-06T19:31:41.470Z,100519.16
2024-02-06T19:34:08.734Z,100516.50
2024-02-06T19:36:36.055Z,100524.53
2024-02-06T19:39:03.944Z,100518.34
2024-02-06T19:41:31.399Z,100507.63
2024-02-06T19:43:59.491Z,100506.78
2024-02-06T19:46:26.975Z,100500.59
2024-02-06T19:48:54.511Z,100511.31
2024-02-06T19:51:23.169Z,100496.09
2024-02-06T19:53:50.014Z,100505.13
2024-02-06T19:56:17.631Z,100496.22
2024-02-06T19:58:44.440Z,100499.91
2024-02-06T20:01:21.735Z,100499.06
2024-02-06T20:03:48.581Z,100512.28
2024-02-06T20:06:17.979Z,100499.91
2024-02-06T20:08:45.999Z,100498.22
2024-02-06T20:11:13.001Z,100499.06
2024-02-06T20:13:39.914Z,100495.56
2024-02-06T20:16:07.064Z,100491.03
2024-02-06T20:18:33.833Z,100490.19
2024-02-06T20:21:00.895Z,100484.03
2024-02-06T20:23:29.430Z,100487.53
2024-02-06T20:25:56.326Z,100487.53
2024-02-06T20:28:23.061Z,100485.84
2024-02-06T20:30:53.370Z,100487.69
2024-02-06T20:33:20.012Z,100489.50
2024-02-06T20:35:46.698Z,100489.38
2024-02-06T20:38:13.281Z,100493.88
2024-02-06T20:40:39.834Z,100467.97
2024-02-06T20:43:06.601Z,100462.63
2024-02-06T20:45:34.852Z,100496.56
2024-02-06T20:48:04.761Z,100461.78
2024-02-06T20:50:32.416Z,100459.09
2024-02-06T20:52:59.092Z,100453.75
2024-02-06T20:55:25.787Z,100456.44
2024-02-06T20:57:52.520Z,100451.09
2024-02-06T21:00:19.505Z,100460.06
2024-02-06T21:02:46.778Z,100477.84
2024-02-06T21:05:13.571Z,100458.28
2024-02-06T21:07:40.369Z,100454.72
2024-02-06T21:10:08.419Z,100445.72
2024-02-06T21:12:35.131Z,100451.09
2024-02-06T21:15:01.945Z,100443.06
2024-02-06T21:17:30.883Z,100451.91
2024-02-06T21:19:58.147Z,100450.25
2024-02-06T21:22:24.919Z,100446.56
2024-02-06T21:24:51.594Z,100449.38
2024-02-06T21:27:18.192Z,100437.72
2024-02-06T21:29:44.831Z,100439.56
2024-02-06T21:32:11.455Z,100436.00
2024-02-06T21:34:39.581Z,100415.47
2024-02-06T21:37:06.247Z,100435.03
2024-02-06T21:39:34.157Z,100428.84
2024-02-06T21:42:01.206Z,100423.50
2024-02-06T21:44:27.809Z,100409.25
2024-02-06T21:46:54.556Z,100408.28
2024-02-06T21:49:21.303Z,100412.81
2024-02-06T21:51:48.080Z,100389.69
2024-02-06T21:54:14.674Z,100400.41
2024-02-06T21:56:42.045Z,100387.88
2024-02-06T21:59:08.659Z,100401.25
2024-02-06T22:01:35.331Z,100439.56
2024-02-06T22:04:02.125Z,100459.09
2024-02-06T22:06:28.798Z,100462.75
2024-02-06T22:08:55.643Z,100466.44
2024-02-06T22:11:24.232Z,100463.75
2024-02-06T22:13:50.915Z,100479.81
2024-02-06T22:16:17.562Z,100478.13
2024-02-06T22:18:44.178Z,100489.81
2024-02-06T22:21:11.068Z,100479.25
2024-02-06T22:23:37.783Z,100490.13
2024-02-06T22:26:04.486Z,100491.13
2024-02-06T22:28:31.739Z,100496.47
2024-02-06T22:30:58.364Z,100496.59
2024-02-06T22:33:25.100Z,100491.25
2024-02-06T22:35:51.781Z,100487.06
2024-02-06T22:38:18.493Z,100495.09
2024-02-06T22:40:46.445Z,100521.81
2024-02-06T22:43:13.542Z,100497.06
2024-02-06T22:45:40.119Z,100505.25
2024-02-06T22:48:07.186Z,100510.59
2024-02-06T22:50:34.560Z,100516.06
2024-02-06T22:53:01.125Z,100521.28
2024-02-06T22:55:27.723Z,100509.88
2024-02-06T22:57:54.276Z,100507.19
2024-02-06T23:00:30.290Z,100517.06
2024-02-06T23:02:58.579Z,100509.19
2024-02-06T23:05:27.103Z,100518.06
2024-02-06T23:07:54.776Z,100523.53
2024-02-06T23:10:21.591Z,100524.53
2024-02-06T23:12:49.286Z,100520.19
2024-02-06T23:15:16.993Z,100519.34
2024-02-06T23:17:44.755Z,100518.50
2024-02-06T23:20:11.824Z,100515.97
2024-02-06T23:22:38.982Z,100518.63
2024-02-06T23:25:06.735Z,100515.13
2024-02-06T23:27:33.379Z,100515.28
2024-02-06T23:30:00.721Z,100515.28
2024-02-06T23:32:27.894Z,100519.81
2024-02-06T23:34:56.882Z,100525.28
2024-02-06T23:37:26.167Z,100522.59
2024-02-06T23:39:53.608Z,100512.91
2024-02-06T23:42:20.253Z,100517.41
2024-02-06T23:44:46.889Z,100523.59
2024-02-06T23:47:13.920Z,100520.09
2024-02-06T23:49:40.940Z,100514.75
2024-02-06T23:52:07.703Z,100531.78
2024-02-06T23:54:35.393Z,100541.63
2024-02-06T23:57:02.028Z,100527.28
2024-02-06T23:59:29.159Z,100536.28
